Time;durP1;ratioP1;P1;durP2;ratioP2;P2;SDS_P1;SDS_P2;PMS_P1;PMS_P2;Temp;Humidity;BMP_temperature;BMP_pressure;BME280_temperature;BME280_humidity;BME280_pressure;Samples;Min_cycle;Max_cycle;Signal;HPM_P1;HPM_P2
2022/09/14 03:41:43;;;;;;;10.43;7.70;;;17.10;99.90;;;;;;5582940;23;20465;-90
2022/09/14 03:44:39;;;;;;;19.85;8.35;;;17.20;99.90;;;;;;4928376;23;20049;31
2022/09/14 03:58:31;;;;;;;9.35;7.97;;;17.00;99.90;;;;;;4922731;23;20124;-94
2022/09/14 04:01:22;;;;;;;9.77;7.15;;;16.90;99.90;;;;;;4866814;29;20040;-93
2022/09/14 04:03:53;;;;;;;10.10;7.50;;;16.80;99.90;;;;;;4851563;29;20041;-93
2022/09/14 04:06:32;;;;;;;9.35;6.70;;;16.70;99.90;;;;;;4866296;29;20028;-93
2022/09/14 04:09:33;;;;;;;;;;;;;;;;;;;;;
2022/09/14 04:12:34;;;;;;;11.15;7.05;;;16.70;99.90;;;;;;4864340;29;20033;-94
2022/09/14 04:15:19;;;;;;;9.85;6.50;;;16.80;99.90;;;;;;4848097;29;20034;-94
2022/09/14 04:17:58;;;;;;;8.13;6.95;;;16.90;99.90;;;;;;4848646;29;20049;-92
2022/09/14 04:20:49;;;;;;;7.45;6.65;;;16.90;99.90;;;;;;4846794;29;20042;-94
2022/09/14 04:23:21;;;;;;;6.85;6.25;;;17.00;99.90;;;;;;4846437;29;20086;-92
2022/09/14 04:26:00;;;;;;;9.40;6.25;;;17.00;99.90;;;;;;4847640;29;20037;-93
2022/09/14 04:35:28;;;;;;;7.47;6.00;;;17.10;99.90;;;;;;5019942;23;20087;-91
2022/09/14 04:38:40;;;;;;;;;;;;;;;;;;;;;
2022/09/14 04:41:24;;;;;;;10.20;5.65;;;17.00;99.90;;;;;;4828531;29;20081;-91
2022/09/14 04:43:53;;;;;;;6.68;5.85;;;17.00;99.90;;;;;;4795490;29;20030;-93
2022/09/14 04:46:29;;;;;;;9.75;6.35;;;16.90;99.90;;;;;;4794134;29;20489;-93
2022/09/14 04:48:56;;;;;;;9.38;6.43;;;16.90;99.90;;;;;;4794104;29;20132;-91
2022/09/14 04:51:26;;;;;;;6.97;6.28;;;16.90;99.90;;;;;;4793912;29;20045;-91
2022/09/14 04:54:03;;;;;;;8.30;6.13;;;16.90;99.90;;;;;;4793975;29;20042;-92
2022/09/14 04:56:33;;;;;;;7.82;5.70;;;16.90;99.90;;;;;;4794777;29;20133;-94
2022/09/14 04:59:05;;;;;;;11.13;6.13;;;17.10;99.90;;;;;;4809371;29;20117;-93
2022/09/14 05:01:38;;;;;;;8.05;6.13;;;17.20;99.90;;;;;;4809274;29;20034;-92
2022/09/14 05:04:11;;;;;;;6.82;6.10;;;17.40;99.90;;;;;;4795154;29;20046;-92
2022/09/14 05:06:49;;;;;;;8.38;6.68;;;17.60;99.90;;;;;;4795188;29;20034;-93
2022/09/14 05:09:37;;;;;;;10.32;6.35;;;17.80;99.90;;;;;;4794108;29;20492;-94
2022/09/14 05:19:56;;;;;;;11.20;8.75;;;21.20;99.90;;;;;;4879380;29;20105;-89
2022/09/14 05:25:01;;;;;;;13.15;11.88;;;23.90;99.90;;;;;;5374992;23;20060;-93
2022/09/14 05:27:28;;;;;;;14.63;13.30;;;24.90;99.90;;;;;;4884851;29;20040;-94
2022/09/14 05:29:54;;;;;;;18.05;16.63;;;25.60;99.90;;;;;;4868045;29;20036;-95
2022/09/14 05:32:24;;;;;;;20.70;18.73;;;25.90;99.90;;;;;;4870340;29;20102;-94
2022/09/14 05:34:51;;;;;;;26.83;20.90;;;26.30;99.90;;;;;;4849000;29;20033;-94
2022/09/14 05:37:17;;;;;;;23.58;21.35;;;26.40;99.90;;;;;;4848743;29;20123;-95
2022/09/14 05:39:44;;;;;;;30.33;26.67;;;27.00;99.90;;;;;;4849124;29;20029;-92
2022/09/14 05:42:15;;;;;;;35.15;27.42;;;27.00;99.90;;;;;;4864760;29;20475;-94
2022/09/14 05:44:44;;;;;;;31.23;27.85;;;27.50;99.90;;;;;;4849760;29;20029;-92
2022/09/14 05:47:11;;;;;;;35.25;26.83;;;27.00;99.90;;;;;;4849117;29;20033;-93
2022/09/14 05:49:38;;;;;;;33.75;28.17;;;27.20;99.90;;;;;;4849013;29;20600;-93
2022/09/14 05:52:05;;;;;;;32.80;27.33;;;27.40;99.90;;;;;;4849667;29;20085;-93
2022/09/14 05:54:31;;;;;;;32.75;26.95;;;27.60;99.90;;;;;;4849493;29;20037;-91
2022/09/14 05:56:58;;;;;;;33.05;27.20;;;28.20;99.90;;;;;;4849805;29;20179;-92
2022/09/14 05:59:24;;;;;;;25.60;23.02;;;28.40;99.90;;;;;;4849653;29;20026;-94
2022/09/14 06:01:51;;;;;;;24.05;21.85;;;28.60;99.90;;;;;;4861368;29;20049;-90
2022/09/14 06:04:17;;;;;;;23.15;20.90;;;28.50;99.90;;;;;;4857033;29;20029;-91
2022/09/14 06:06:44;;;;;;;19.13;17.48;;;28.70;99.90;;;;;;4866468;29;20041;-92
2022/09/14 06:09:11;;;;;;;17.70;16.13;;;28.60;99.90;;;;;;4854675;29;20025;-94
2022/09/14 06:11:41;;;;;;;19.60;18.10;;;29.50;99.90;;;;;;4852156;29;20036;-93
2022/09/14 06:14:07;;;;;;;17.35;15.88;;;29.50;99.90;;;;;;4852988;29;20031;-91
2022/09/14 06:16:37;;;;;;;15.90;14.80;;;29.70;99.90;;;;;;4851942;29;20080;-92
2022/09/14 06:19:04;;;;;;;16.25;15.00;;;29.90;99.90;;;;;;4851719;29;20033;-92
2022/09/14 06:21:35;;;;;;;16.17;14.93;;;30.70;99.90;;;;;;4851976;29;20463;-93
2022/09/14 06:24:02;;;;;;;16.13;14.88;;;30.10;99.90;;;;;;4852176;29;20040;-93
2022/09/14 06:26:45;;;;;;;16.33;14.90;;;30.20;99.90;;;;;;4867495;29;20032;-92
2022/09/14 06:29:11;;;;;;;15.93;14.52;;;30.40;99.90;;;;;;4855907;29;20135;-92
2022/09/14 06:31:38;;;;;;;16.75;14.98;;;30.40;99.90;;;;;;4853739;29;20037;-88
2022/09/14 06:34:05;;;;;;;15.43;14.48;;;30.60;99.90;;;;;;4854906;29;20035;-88
2022/09/14 06:36:31;;;;;;;14.88;13.82;;;30.80;99.90;;;;;;4854334;29;20088;-87
2022/09/14 06:38:59;;;;;;;15.30;14.10;;;30.60;99.90;;;;;;4869198;29;20036;-89
2022/09/14 06:41:29;;;;;;;15.73;14.50;;;30.00;99.90;;;;;;4868954;29;20032;-87
2022/09/14 06:43:58;;;;;;;15.18;14.00;;;29.80;99.90;;;;;;4853310;29;20132;-88
2022/09/14 06:46:30;;;;;;;15.15;13.65;;;30.20;99.90;;;;;;4853301;29;20475;-88
2022/09/14 06:49:06;;;;;;;14.75;13.60;;;30.50;99.90;;;;;;4853222;29;20065;-86
2022/09/14 06:51:35;;;;;;;15.13;13.90;;;30.60;99.90;;;;;;4853823;29;20032;-88
2022/09/14 06:54:04;;;;;;;16.20;13.80;;;30.60;99.90;;;;;;4854861;29;20032;-92
2022/09/14 06:56:34;;;;;;;14.38;13.35;;;30.30;99.90;;;;;;4851309;29;20089;-93
2022/09/14 06:59:02;;;;;;;15.15;13.93;;;30.50;99.90;;;;;;4851321;29;20036;-94
2022/09/14 07:01:28;;;;;;;13.70;12.90;;;31.10;99.90;;;;;;4851010;29;20086;-94
2022/09/14 07:03:57;;;;;;;15.15;13.95;;;31.40;99.90;;;;;;4851227;29;20063;-93
2022/09/14 07:06:29;;;;;;;14.48;13.57;;;32.10;99.90;;;;;;4851258;29;20041;-93
2022/09/14 07:09:03;;;;;;;13.70;13.00;;;32.10;99.90;;;;;;4850943;29;20131;-92
2022/09/14 07:11:30;;;;;;;14.57;13.60;;;31.90;99.90;;;;;;4850914;29;20041;-93
2022/09/14 07:14:01;;;;;;;13.93;13.13;;;31.30;99.90;;;;;;4850872;29;20035;-93
2022/09/14 07:16:29;;;;;;;14.05;13.35;;;30.60;99.90;;;;;;4850821;29;20041;-92
2022/09/14 07:50:09;;;;;;;14.27;13.38;;;30.00;99.90;;;;;;4865614;29;20417;-92
2022/09/14 07:52:35;;;;;;;13.70;13.00;;;30.00;99.90;;;;;;4865899;29;20527;-93
2022/09/14 07:55:02;;;;;;;14.02;13.32;;;30.50;99.90;;;;;;4865909;29;20395;-92
2022/09/14 07:57:28;;;;;;;14.48;13.63;;;30.60;99.90;;;;;;4865385;29;20511;-93
2022/09/14 07:59:57;;;;;;;14.52;13.82;;;30.80;99.90;;;;;;4881226;29;20032;-91
2022/09/14 08:02:27;;;;;;;14.57;13.85;;;30.70;99.90;;;;;;4865793;29;20395;-92
2022/09/14 08:04:54;;;;;;;14.95;14.15;;;30.90;99.90;;;;;;4881255;29;20069;-93
2022/09/14 08:07:20;;;;;;;14.98;14.18;;;31.40;99.90;;;;;;4881349;29;20029;-92
2022/09/14 08:09:47;;;;;;;15.60;14.35;;;31.20;99.90;;;;;;4880956;29;20088;-92
2022/09/14 08:12:15;;;;;;;14.80;13.85;;;30.70;99.90;;;;;;4881429;29;20546;-93
2022/09/14 08:14:42;;;;;;;15.60;14.55;;;30.90;99.90;;;;;;4881311;29;20483;-91
2022/09/14 08:17:49;;;;;;;15.25;14.25;;;31.20;99.90;;;;;;4881058;29;20162;-93
2022/09/14 08:20:43;;;;;;;15.30;14.20;;;30.70;99.90;;;;;;4866784;29;20044;-92
2022/09/14 08:23:10;;;;;;;16.67;15.50;;;30.70;99.90;;;;;;4878605;29;20095;-85
2022/09/14 08:25:36;;;;;;;14.95;14.05;;;30.80;99.90;;;;;;4879530;29;20028;-84
2022/09/14 08:28:02;;;;;;;15.50;14.55;;;30.70;99.90;;;;;;4880784;29;20041;-85
2022/09/14 08:30:29;;;;;;;15.80;14.70;;;30.60;99.90;;;;;;4880545;29;20105;-86
2022/09/14 08:32:55;;;;;;;14.57;13.77;;;30.40;99.90;;;;;;4881032;29;20064;-85
2022/09/14 08:35:21;;;;;;;15.07;14.15;;;30.60;99.90;;;;;;4880827;29;20037;-85
2022/09/14 08:37:47;;;;;;;14.88;14.07;;;30.50;99.90;;;;;;4880928;29;20037;-88
2022/09/14 08:40:16;;;;;;;15.15;14.23;;;30.10;99.90;;;;;;4879992;29;20065;-84
2022/09/14 08:42:43;;;;;;;14.80;14.00;;;29.40;99.90;;;;;;4880805;29;20407;-88
2022/09/14 08:45:14;;;;;;;14.18;13.48;;;29.40;99.90;;;;;;4880054;29;20024;-86
2022/09/14 08:47:41;;;;;;;14.27;13.60;;;29.50;99.90;;;;;;4879381;29;20534;-85
2022/09/14 08:50:17;;;;;;;15.05;14.15;;;30.00;99.90;;;;;;4864270;29;20479;-84
2022/09/14 08:52:48;;;;;;;14.98;14.10;;;30.20;99.90;;;;;;4879513;29;20522;-81
2022/09/14 08:55:29;;;;;;;15.20;14.32;;;30.80;99.90;;;;;;4880356;29;20044;-85
2022/09/14 08:58:03;;;;;;;15.10;14.20;;;31.00;99.90;;;;;;4880347;29;20057;-85
2022/09/14 09:00:51;;;;;;;14.23;13.45;;;31.20;99.90;;;;;;4879167;29;20081;-85
2022/09/14 09:03:43;;;;;;;13.98;13.38;;;31.40;99.90;;;;;;4863851;29;20045;-85
2022/09/14 09:06:21;;;;;;;14.55;13.75;;;31.00;99.90;;;;;;4864366;29;20096;-86
2022/09/14 09:09:18;;;;;;;14.35;13.55;;;31.20;99.90;;;;;;4879152;29;20041;-84
2022/09/14 09:11:48;;;;;;;14.63;13.82;;;30.70;99.90;;;;;;4863648;29;20041;-84
2022/09/14 09:14:18;;;;;;;13.90;13.30;;;30.60;99.90;;;;;;4863729;29;20503;-85
2022/09/14 09:16:49;;;;;;;14.40;13.68;;;30.50;99.90;;;;;;4863954;29;20072;-84
2022/09/14 09:19:39;;;;;;;14.50;13.80;;;30.70;99.90;;;;;;4878949;29;20037;-83
2022/09/14 09:22:14;;;;;;;14.82;14.02;;;30.70;99.90;;;;;;4863375;29;20076;-84
2022/09/14 09:24:46;;;;;;;15.05;14.00;;;30.90;99.90;;;;;;4879177;29;20041;-84
2022/09/14 09:27:14;;;;;;;14.80;13.98;;;31.00;99.90;;;;;;4880332;29;20483;-84
2022/09/14 09:29:42;;;;;;;14.75;13.95;;;31.10;99.90;;;;;;4880289;29;20104;-84
2022/09/14 09:32:22;;;;;;;15.23;14.23;;;31.30;99.90;;;;;;4880035;29;20135;-84
2022/09/14 09:34:49;;;;;;;15.52;14.52;;;31.30;99.90;;;;;;4880205;29;20120;-85
2022/09/14 09:37:37;;;;;;;14.80;14.00;;;31.40;99.90;;;;;;4879771;29;20044;-84
2022/09/14 09:40:14;;;;;;;14.90;14.10;;;31.50;99.90;;;;;;4879644;29;20111;-82
2022/09/14 09:43:06;;;;;;;15.57;14.75;;;31.40;99.90;;;;;;4867019;29;20379;-85
2022/09/14 09:45:52;;;;;;;15.43;14.60;;;31.10;99.90;;;;;;4867169;29;20056;-82
2022/09/14 09:48:23;;;;;;;15.30;14.38;;;30.70;99.90;;;;;;4866590;29;20131;-82
2022/09/14 09:51:11;;;;;;;15.73;14.75;;;30.90;99.90;;;;;;4851698;29;20040;-85
2022/09/14 09:53:47;;;;;;;15.65;14.80;;;31.10;99.90;;;;;;4867135;29;20075;-86
2022/09/14 09:56:23;;;;;;;14.98;14.18;;;31.40;99.90;;;;;;4866940;29;20029;-85
2022/09/14 09:58:50;;;;;;;15.73;14.52;;;31.50;99.90;;;;;;4867416;29;20029;-87
2022/09/14 10:01:25;;;;;;;15.05;14.15;;;31.60;99.90;;;;;;4882688;29;20032;-86
2022/09/14 10:04:08;;;;;;;15.48;14.43;;;31.60;99.90;;;;;;4882962;29;20037;-87
2022/09/14 10:06:49;;;;;;;15.30;14.40;;;31.20;99.90;;;;;;4867284;29;20033;-87
2022/09/14 10:09:22;;;;;;;14.63;13.93;;;31.40;99.90;;;;;;4882825;29;20037;-87
2022/09/14 10:12:00;;;;;;;15.38;14.48;;;31.10;99.90;;;;;;4867340;29;20115;-86
2022/09/14 10:14:35;;;;;;;15.13;14.23;;;30.80;99.90;;;;;;4867490;29;20047;-88
2022/09/14 10:17:20;;;;;;;14.98;14.20;;;31.00;99.90;;;;;;4867421;29;20041;-87
2022/09/14 10:19:50;;;;;;;15.27;14.48;;;30.60;99.90;;;;;;4882684;29;20483;-88
2022/09/14 10:22:28;;;;;;;15.07;14.10;;;30.70;99.90;;;;;;4882494;29;20041;-86
2022/09/14 10:24:57;;;;;;;14.70;14.00;;;30.70;99.90;;;;;;4866679;29;20040;-87
2022/09/14 10:27:47;;;;;;;15.10;14.30;;;30.30;99.90;;;;;;4882295;29;20025;-86
2022/09/14 10:30:19;;;;;;;14.80;14.02;;;30.60;99.90;;;;;;4866265;29;20436;-80
2022/09/14 10:33:02;;;;;;;15.13;14.27;;;30.90;99.90;;;;;;4882754;29;20033;-80
2022/09/14 10:35:43;;;;;;;14.88;13.90;;;31.20;99.90;;;;;;4881763;29;20056;-80
2022/09/14 10:38:36;;;;;;;16.10;15.10;;;31.30;99.90;;;;;;4883013;29;20085;-80
2022/09/14 10:41:17;;;;;;;15.25;14.45;;;31.30;99.90;;;;;;4882399;29;20053;-80
2022/09/14 10:44:08;;;;;;;15.00;14.10;;;31.30;99.90;;;;;;4882513;29;20081;-79
2022/09/14 10:46:54;;;;;;;15.02;14.15;;;31.30;99.90;;;;;;4865933;29;20506;-82
2022/09/14 10:49:53;;;;;;;15.07;14.27;;;30.90;99.90;;;;;;4865699;29;20065;-82
2022/09/14 10:52:19;;;;;;;16.00;15.00;;;30.50;99.90;;;;;;4846598;29;20041;-81
2022/09/14 10:55:19;;;;;;;15.30;14.43;;;30.30;99.90;;;;;;4882302;29;20507;-82
2022/09/14 10:57:54;;;;;;;15.82;15.02;;;30.70;99.90;;;;;;4865509;29;20169;-82
2022/09/14 11:00:23;;;;;;;15.88;14.98;;;30.70;99.90;;;;;;4865700;29;20045;-82
2022/09/14 11:03:19;;;;;;;16.05;15.25;;;30.90;99.90;;;;;;4865560;29;20398;-82
2022/09/14 11:06:04;;;;;;;15.77;14.88;;;31.10;99.90;;;;;;4882818;29;20036;-89
2022/09/14 11:08:51;;;;;;;15.60;14.80;;;31.40;99.90;;;;;;4866209;29;20056;-86
2022/09/14 11:11:18;;;;;;;15.60;14.90;;;31.60;99.90;;;;;;4865999;29;20033;-86
2022/09/14 11:14:15;;;;;;;15.52;14.73;;;31.80;99.90;;;;;;4865913;29;20088;-87
2022/09/14 11:17:05;;;;;;;15.90;14.98;;;32.10;99.90;;;;;;4865834;29;20041;-87
2022/09/14 11:19:50;;;;;;;16.15;15.10;;;31.90;99.90;;;;;;4865865;29;20040;-87
2022/09/14 11:22:43;;;;;;;15.30;14.32;;;31.40;99.90;;;;;;4865875;29;20116;-86
2022/09/14 11:25:21;;;;;;;15.57;14.88;;;31.20;99.90;;;;;;4865803;29;20033;-86
2022/09/14 11:28:04;;;;;;;15.50;14.60;;;31.30;99.90;;;;;;4865867;29;20048;-89
2022/09/14 11:30:41;;;;;;;15.43;14.73;;;31.00;99.90;;;;;;4865715;29;20077;-88
2022/09/14 11:33:19;;;;;;;15.48;14.52;;;31.00;99.90;;;;;;4865027;29;20093;-88
2022/09/14 11:35:59;;;;;;;15.40;14.50;;;31.10;99.90;;;;;;4865783;29;20099;-88
2022/09/14 11:38:35;;;;;;;15.48;14.68;;;31.10;99.90;;;;;;4865809;29;20138;-88
2022/09/14 11:41:17;;;;;;;15.07;14.38;;;31.30;99.90;;;;;;4865769;29;20028;-90
2022/09/14 11:43:56;;;;;;;15.02;14.32;;;31.40;99.90;;;;;;4870453;29;20033;-90
2022/09/14 11:46:37;;;;;;;15.02;14.32;;;31.40;99.90;;;;;;4865995;29;20058;-91
2022/09/14 11:49:48;;;;;;;15.30;14.50;;;31.50;99.90;;;;;;4866906;29;20069;-89
2022/09/14 11:52:22;;;;;;;14.93;14.15;;;31.30;99.90;;;;;;4876927;29;20041;-89
2022/09/14 12:24:26;;;;;;;15.07;14.18;;;30.20;99.90;;;;;;4964701;23;20060;-94
2022/09/14 12:33:17;;;;;;;;;;;;;;;;;;;;;
2022/09/14 14:17:49;;;;;;;14.75;13.77;;;28.10;99.90;;;;;;1009616;23;20431;-94
2022/09/14 14:21:02;;;;;;;;;;;;;;;;;;;;;
2022/09/14 14:30:42;;;;;;;14.93;13.93;;;28.00;99.90;;;;;;5204971;23;20053;-93
2022/09/14 14:33:34;;;;;;;14.25;13.40;;;28.10;99.90;;;;;;4857420;29;20128;-92
2022/09/14 14:36:08;;;;;;;14.15;13.32;;;28.00;99.90;;;;;;4849364;29;20054;-92
2022/09/14 14:38:35;;;;;;;13.73;13.02;;;28.00;99.90;;;;;;4832285;29;20050;-92
2022/09/14 19:02:59;;;;;;;14.15;10.45;;;22.50;99.90;;;;;;5071570;23;20044;-94
2022/09/14 19:05:52;;;;;;;10.70;9.70;;;22.30;99.90;;;;;;4907626;29;20040;-93
2022/09/14 19:08:26;;;;;;;13.25;10.15;;;22.20;99.90;;;;;;4895606;29;20542;-94
2022/09/14 19:11:34;;;;;;;10.38;9.40;;;22.10;99.90;;;;;;4896185;29;20025;-94
2022/09/14 19:20:46;;;;;;;;;;;;;;;;;;;;;
2022/09/14 19:24:04;;;;;;;11.27;9.80;;;21.70;99.90;;;;;;4895997;29;20060;-95
2022/09/14 19:26:34;;;;;;;13.80;9.52;;;21.70;99.90;;;;;;4872656;29;20116;-92
2022/09/14 19:29:02;;;;;;;16.45;8.90;;;21.60;99.90;;;;;;4869841;29;20127;-93
2022/09/14 19:31:30;;;;;;;10.35;8.93;;;21.60;99.90;;;;;;4870141;29;20112;-94
2022/09/14 19:33:57;;;;;;;9.90;8.00;;;21.60;99.90;;;;;;4870863;29;20032;-93
2022/09/14 19:36:29;;;;;;;12.73;8.38;;;21.50;99.90;;;;;;4874414;29;20044;-93
2022/09/14 19:39:05;;;;;;;12.73;8.32;;;21.50;99.90;;;;;;4886919;29;20040;-93
2022/09/14 19:53:58;;;;;;;10.73;8.02;;;21.20;99.90;;;;;;4999604;23;20505;-93
2022/09/14 19:56:08;;;;;;;13.40;8.38;;;21.20;99.90;;;;;;4876502;29;20033;-91
2022/09/14 19:58:44;;;;;;;9.93;8.02;;;21.20;99.90;;;;;;4854707;29;20033;-93
2022/09/14 20:01:13;;;;;;;9.85;8.40;;;21.20;99.90;;;;;;4866865;29;20111;-93
2022/09/14 20:03:40;;;;;;;14.73;8.65;;;21.20;99.90;;;;;;4856452;29;20116;-92
2022/09/14 20:06:39;;;;;;;17.83;8.48;;;21.10;99.90;;;;;;4858412;29;20093;-93
2022/09/14 20:09:09;;;;;;;12.20;8.38;;;21.10;99.90;;;;;;4873237;29;20403;-91
2022/09/14 20:11:39;;;;;;;11.73;8.38;;;21.10;99.90;;;;;;4854499;29;20037;-92
2022/09/14 20:14:09;;;;;;;11.35;8.27;;;21.00;99.90;;;;;;4854194;29;20033;-92
2022/09/14 23:17:56;;;;;;;11.07;5.72;;;19.40;99.90;;;;;;596593;23;20501;-94
2022/09/14 23:20:22;;;;;;;11.98;6.28;;;19.50;99.90;;;;;;4865906;29;20140;-92
2022/09/14 23:22:52;;;;;;;13.73;6.68;;;19.40;99.90;;;;;;4851466;29;20120;-92
2022/09/14 23:25:18;;;;;;;12.55;6.40;;;19.40;99.90;;;;;;4866388;29;20069;-92
2022/09/14 23:27:45;;;;;;;10.07;6.82;;;19.50;99.90;;;;;;4850953;29;20021;-92
2022/09/14 23:30:12;;;;;;;14.88;6.60;;;19.40;99.90;;;;;;4851181;29;20037;-92
2022/09/14 23:32:41;;;;;;;9.63;6.32;;;19.40;99.90;;;;;;4868564;29;20124;-92
2022/09/14 23:35:08;;;;;;;9.07;5.78;;;19.30;99.90;;;;;;4854544;29;20037;-92
2022/09/14 23:37:34;;;;;;;8.55;5.35;;;19.40;99.90;;;;;;4869309;29;20033;-92
2022/09/14 23:40:01;;;;;;;13.65;6.50;;;19.30;99.90;;;;;;4851350;29;20033;-93
2022/09/14 23:42:43;;;;;;;9.48;5.75;;;19.30;99.90;;;;;;4865960;29;20033;-93
2022/09/14 23:45:10;;;;;;;7.95;5.43;;;19.30;99.90;;;;;;4866221;29;20040;-95
2022/09/14 23:47:37;;;;;;;5.82;5.07;;;19.30;99.90;;;;;;4850697;29;20064;-94
2022/09/14 23:50:04;;;;;;;6.78;5.07;;;19.30;99.90;;;;;;4850571;29;20495;-94
2022/09/14 23:52:31;;;;;;;7.68;5.50;;;19.30;99.90;;;;;;4865753;29;20040;-93
2022/09/14 23:54:58;;;;;;;6.93;5.07;;;19.30;99.90;;;;;;4850432;29;20036;-94
2022/09/14 23:57:24;;;;;;;8.98;5.63;;;19.30;99.90;;;;;;4851189;29;20140;-93
2022/09/14 23:59:51;;;;;;;12.60;5.63;;;19.30;99.90;;;;;;4864707;29;20033;-93
